Ashley, North Dakota
Current Conditions -  °F | °C
As of 5:55 AM on Sunday 23 Nov 2014 (Local Time) from K7L2 Reporting Station
Broken Clouds Broken Clouds  
Wind Chill: 31°   Ceiling: 4300
Heat Index: 36°   Visibility: 10mi
Dew Point: 34°   Wind: 6mph
Humidity: 93%   Direction: 290°WNW
Pressure: 29.47"   Gusts: NA
Location:  46.03°N, 99.37°W
Report Text: K7L2 231155Z AUTO 29005KT 10SM BKN043 BKN050 02/01 A2947 RMK AO2
Loading
Personal Weather Stations






























Interactive Weather Map New forecast layout! Learn more

10-Day Weather Forecast

Advertisements
Track Severe Weather on mobile